sensor_id;sensor_type;location;lat;lon;timestamp;P1;durP1;ratioP1;P2;durP2;ratioP2
13291;SDS011;6714;53.056;8.690;2023-11-21T00:01:48;15.17;;;8.43;;
13291;SDS011;6714;53.056;8.690;2023-11-21T00:04:30;16.53;;;9.80;;
13291;SDS011;6714;53.056;8.690;2023-11-21T00:07:12;14.57;;;9.03;;
13291;SDS011;6714;53.056;8.690;2023-11-21T00:09:55;14.60;;;9.40;;
13291;SDS011;6714;53.056;8.690;2023-11-21T00:12:38;17.07;;;10.93;;
13291;SDS011;6714;53.056;8.690;2023-11-21T00:15:22;13.77;;;9.60;;
13291;SDS011;6714;53.056;8.690;2023-11-21T00:18:06;16.80;;;9.83;;
13291;SDS011;6714;53.056;8.690;2023-11-21T00:20:48;17.23;;;9.87;;
13291;SDS011;6714;53.056;8.690;2023-11-21T00:23:30;14.97;;;9.60;;
13291;SDS011;6714;53.056;8.690;2023-11-21T00:26:13;15.93;;;9.33;;
13291;SDS011;6714;53.056;8.690;2023-11-21T00:28:55;24.53;;;10.70;;
13291;SDS011;6714;53.056;8.690;2023-11-21T00:31:38;14.93;;;9.60;;
13291;SDS011;6714;53.056;8.690;2023-11-21T00:34:22;23.03;;;11.60;;
13291;SDS011;6714;53.056;8.690;2023-11-21T00:37:04;17.67;;;10.57;;
13291;SDS011;6714;53.056;8.690;2023-11-21T00:39:47;15.83;;;9.10;;
13291;SDS011;6714;53.056;8.690;2023-11-21T00:42:29;16.73;;;8.90;;
13291;SDS011;6714;53.056;8.690;2023-11-21T00:45:14;27.43;;;11.03;;
13291;SDS011;6714;53.056;8.690;2023-11-21T00:47:56;15.67;;;9.33;;
13291;SDS011;6714;53.056;8.690;2023-11-21T00:50:40;15.50;;;8.37;;
13291;SDS011;6714;53.056;8.690;2023-11-21T00:53:23;18.27;;;11.40;;
13291;SDS011;6714;53.056;8.690;2023-11-21T00:56:05;17.00;;;9.20;;
13291;SDS011;6714;53.056;8.690;2023-11-21T00:58:49;16.93;;;9.03;;
13291;SDS011;6714;53.056;8.690;2023-11-21T01:01:32;13.17;;;8.87;;
13291;SDS011;6714;53.056;8.690;2023-11-21T01:04:14;15.50;;;9.03;;
13291;SDS011;6714;53.056;8.690;2023-11-21T01:06:58;15.90;;;9.03;;
13291;SDS011;6714;53.056;8.690;2023-11-21T01:09:41;18.87;;;9.93;;
13291;SDS011;6714;53.056;8.690;2023-11-21T01:12:24;16.57;;;9.63;;
13291;SDS011;6714;53.056;8.690;2023-11-21T01:15:06;10.17;;;6.57;;
13291;SDS011;6714;53.056;8.690;2023-11-21T01:17:49;11.37;;;7.90;;
13291;SDS011;6714;53.056;8.690;2023-11-21T01:20:31;14.50;;;8.73;;
13291;SDS011;6714;53.056;8.690;2023-11-21T01:23:15;20.23;;;10.53;;
13291;SDS011;6714;53.056;8.690;2023-11-21T01:25:57;14.23;;;9.07;;
13291;SDS011;6714;53.056;8.690;2023-11-21T01:28:40;14.20;;;8.37;;
13291;SDS011;6714;53.056;8.690;2023-11-21T01:31:22;14.57;;;8.23;;
13291;SDS011;6714;53.056;8.690;2023-11-21T01:34:09;18.40;;;10.20;;
13291;SDS011;6714;53.056;8.690;2023-11-21T01:36:51;14.37;;;9.00;;
13291;SDS011;6714;53.056;8.690;2023-11-21T01:39:35;12.93;;;7.40;;
13291;SDS011;6714;53.056;8.690;2023-11-21T01:42:19;14.93;;;7.70;;
13291;SDS011;6714;53.056;8.690;2023-11-21T01:45:02;8.50;;;4.80;;
13291;SDS011;6714;53.056;8.690;2023-11-21T01:47:46;14.20;;;8.83;;
13291;SDS011;6714;53.056;8.690;2023-11-21T01:50:28;14.00;;;9.00;;
13291;SDS011;6714;53.056;8.690;2023-11-21T01:53:11;7.73;;;5.13;;
13291;SDS011;6714;53.056;8.690;2023-11-21T01:55:56;11.63;;;7.13;;
13291;SDS011;6714;53.056;8.690;2023-11-21T01:58:40;14.53;;;8.83;;
13291;SDS011;6714;53.056;8.690;2023-11-21T02:01:23;12.80;;;8.00;;
13291;SDS011;6714;53.056;8.690;2023-11-21T02:04:06;14.50;;;7.57;;
13291;SDS011;6714;53.056;8.690;2023-11-21T02:06:49;13.90;;;8.93;;
13291;SDS011;6714;53.056;8.690;2023-11-21T02:09:32;18.23;;;10.60;;
13291;SDS011;6714;53.056;8.690;2023-11-21T02:12:19;14.13;;;8.27;;
13291;SDS011;6714;53.056;8.690;2023-11-21T02:15:02;14.97;;;8.80;;
13291;SDS011;6714;53.056;8.690;2023-11-21T02:17:50;16.40;;;10.87;;
13291;SDS011;6714;53.056;8.690;2023-11-21T02:20:33;17.90;;;10.67;;
13291;SDS011;6714;53.056;8.690;2023-11-21T02:23:20;22.10;;;11.37;;
13291;SDS011;6714;53.056;8.690;2023-11-21T02:26:03;14.77;;;10.97;;
13291;SDS011;6714;53.056;8.690;2023-11-21T02:28:45;19.73;;;10.37;;
13291;SDS011;6714;53.056;8.690;2023-11-21T02:31:28;17.40;;;12.10;;
13291;SDS011;6714;53.056;8.690;2023-11-21T02:34:13;18.67;;;11.60;;
13291;SDS011;6714;53.056;8.690;2023-11-21T02:36:56;18.03;;;11.77;;
13291;SDS011;6714;53.056;8.690;2023-11-21T02:39:41;10.73;;;8.57;;
13291;SDS011;6714;53.056;8.690;2023-11-21T02:42:23;12.27;;;7.80;;
13291;SDS011;6714;53.056;8.690;2023-11-21T02:45:06;17.53;;;11.70;;
13291;SDS011;6714;53.056;8.690;2023-11-21T02:47:49;14.93;;;10.40;;
13291;SDS011;6714;53.056;8.690;2023-11-21T02:50:33;13.23;;;9.60;;
13291;SDS011;6714;53.056;8.690;2023-11-21T02:53:15;16.67;;;12.13;;
13291;SDS011;6714;53.056;8.690;2023-11-21T02:56:00;15.37;;;10.97;;
13291;SDS011;6714;53.056;8.690;2023-11-21T02:58:43;14.10;;;10.23;;
13291;SDS011;6714;53.056;8.690;2023-11-21T03:01:25;13.23;;;9.80;;
13291;SDS011;6714;53.056;8.690;2023-11-21T03:04:08;17.80;;;11.97;;
13291;SDS011;6714;53.056;8.690;2023-11-21T03:06:51;12.83;;;9.20;;
13291;SDS011;6714;53.056;8.690;2023-11-21T03:09:33;13.93;;;10.73;;
13291;SDS011;6714;53.056;8.690;2023-11-21T03:12:18;13.80;;;9.40;;
13291;SDS011;6714;53.056;8.690;2023-11-21T03:15:01;13.70;;;9.93;;
13291;SDS011;6714;53.056;8.690;2023-11-21T03:17:43;12.33;;;9.00;;
13291;SDS011;6714;53.056;8.690;2023-11-21T03:20:25;15.70;;;10.87;;
13291;SDS011;6714;53.056;8.690;2023-11-21T03:23:08;17.17;;;12.17;;
13291;SDS011;6714;53.056;8.690;2023-11-21T03:25:50;5.93;;;4.67;;
13291;SDS011;6714;53.056;8.690;2023-11-21T03:28:34;25.53;;;16.13;;
13291;SDS011;6714;53.056;8.690;2023-11-21T03:31:16;11.53;;;8.07;;
13291;SDS011;6714;53.056;8.690;2023-11-21T03:33:59;26.33;;;15.97;;
13291;SDS011;6714;53.056;8.690;2023-11-21T03:36:43;17.93;;;11.60;;
13291;SDS011;6714;53.056;8.690;2023-11-21T03:39:26;20.60;;;11.50;;
13291;SDS011;6714;53.056;8.690;2023-11-21T03:42:09;16.87;;;11.60;;
13291;SDS011;6714;53.056;8.690;2023-11-21T03:44:53;15.57;;;10.03;;
13291;SDS011;6714;53.056;8.690;2023-11-21T03:47:35;21.23;;;13.13;;
13291;SDS011;6714;53.056;8.690;2023-11-21T03:50:18;30.97;;;17.50;;
13291;SDS011;6714;53.056;8.690;2023-11-21T03:53:03;17.87;;;11.33;;
13291;SDS011;6714;53.056;8.690;2023-11-21T03:55:45;20.30;;;12.53;;
13291;SDS011;6714;53.056;8.690;2023-11-21T03:58:29;36.27;;;18.67;;
13291;SDS011;6714;53.056;8.690;2023-11-21T04:01:15;32.70;;;19.07;;
13291;SDS011;6714;53.056;8.690;2023-11-21T04:04:02;33.13;;;18.30;;
13291;SDS011;6714;53.056;8.690;2023-11-21T04:06:44;28.80;;;16.73;;
13291;SDS011;6714;53.056;8.690;2023-11-21T04:09:26;21.30;;;13.50;;
13291;SDS011;6714;53.056;8.690;2023-11-21T04:12:09;21.40;;;13.03;;
13291;SDS011;6714;53.056;8.690;2023-11-21T04:14:51;34.90;;;20.07;;
13291;SDS011;6714;53.056;8.690;2023-11-21T04:17:35;15.50;;;10.47;;
13291;SDS011;6714;53.056;8.690;2023-11-21T04:20:17;17.97;;;11.97;;
13291;SDS011;6714;53.056;8.690;2023-11-21T04:23:00;27.43;;;17.53;;
13291;SDS011;6714;53.056;8.690;2023-11-21T04:25:43;23.60;;;15.33;;
13291;SDS011;6714;53.056;8.690;2023-11-21T04:28:25;32.00;;;20.77;;
13291;SDS011;6714;53.056;8.690;2023-11-21T04:31:08;24.70;;;15.97;;
13291;SDS011;6714;53.056;8.690;2023-11-21T04:33:52;22.63;;;15.07;;
13291;SDS011;6714;53.056;8.690;2023-11-21T04:36:34;21.37;;;14.87;;
13291;SDS011;6714;53.056;8.690;2023-11-21T04:39:16;33.47;;;19.93;;
13291;SDS011;6714;53.056;8.690;2023-11-21T04:42:00;18.70;;;11.37;;
13291;SDS011;6714;53.056;8.690;2023-11-21T04:44:42;30.00;;;20.27;;
13291;SDS011;6714;53.056;8.690;2023-11-21T04:47:24;19.97;;;15.00;;
13291;SDS011;6714;53.056;8.690;2023-11-21T04:50:09;20.70;;;15.07;;
13291;SDS011;6714;53.056;8.690;2023-11-21T04:52:51;22.90;;;16.23;;
13291;SDS011;6714;53.056;8.690;2023-11-21T04:55:33;28.70;;;19.07;;
13291;SDS011;6714;53.056;8.690;2023-11-21T04:58:16;24.37;;;18.33;;
13291;SDS011;6714;53.056;8.690;2023-11-21T05:00:59;21.77;;;14.83;;
13291;SDS011;6714;53.056;8.690;2023-11-21T05:03:41;25.47;;;18.13;;
13291;SDS011;6714;53.056;8.690;2023-11-21T05:06:25;16.63;;;13.17;;
13291;SDS011;6714;53.056;8.690;2023-11-21T05:09:08;20.17;;;14.40;;
13291;SDS011;6714;53.056;8.690;2023-11-21T05:11:52;16.33;;;12.17;;
13291;SDS011;6714;53.056;8.690;2023-11-21T05:14:34;22.57;;;16.00;;
13291;SDS011;6714;53.056;8.690;2023-11-21T05:17:17;18.63;;;14.40;;
13291;SDS011;6714;53.056;8.690;2023-11-21T05:19:59;15.20;;;13.50;;
13291;SDS011;6714;53.056;8.690;2023-11-21T05:22:45;24.93;;;18.13;;
13291;SDS011;6714;53.056;8.690;2023-11-21T05:25:28;21.57;;;17.43;;
13291;SDS011;6714;53.056;8.690;2023-11-21T05:28:10;30.13;;;21.77;;
13291;SDS011;6714;53.056;8.690;2023-11-21T05:30:53;19.20;;;14.77;;
13291;SDS011;6714;53.056;8.690;2023-11-21T05:33:35;16.90;;;12.57;;
13291;SDS011;6714;53.056;8.690;2023-11-21T05:36:18;24.53;;;18.30;;
13291;SDS011;6714;53.056;8.690;2023-11-21T05:39:02;21.30;;;16.73;;
13291;SDS011;6714;53.056;8.690;2023-11-21T05:41:44;18.80;;;14.23;;
13291;SDS011;6714;53.056;8.690;2023-11-21T05:44:27;19.10;;;14.37;;
13291;SDS011;6714;53.056;8.690;2023-11-21T05:47:09;16.43;;;12.80;;
13291;SDS011;6714;53.056;8.690;2023-11-21T05:49:54;16.63;;;12.90;;
13291;SDS011;6714;53.056;8.690;2023-11-21T05:52:36;13.90;;;10.50;;
13291;SDS011;6714;53.056;8.690;2023-11-21T05:55:22;11.97;;;10.17;;
13291;SDS011;6714;53.056;8.690;2023-11-21T05:58:05;11.70;;;9.37;;
13291;SDS011;6714;53.056;8.690;2023-11-21T06:00:48;9.63;;;8.63;;
13291;SDS011;6714;53.056;8.690;2023-11-21T06:03:30;9.80;;;8.47;;
13291;SDS011;6714;53.056;8.690;2023-11-21T06:06:12;9.30;;;7.80;;
13291;SDS011;6714;53.056;8.690;2023-11-21T06:08:55;10.17;;;7.93;;
13291;SDS011;6714;53.056;8.690;2023-11-21T06:11:39;8.87;;;7.97;;
13291;SDS011;6714;53.056;8.690;2023-11-21T06:14:21;8.30;;;7.33;;
13291;SDS011;6714;53.056;8.690;2023-11-21T06:17:04;7.97;;;7.17;;
13291;SDS011;6714;53.056;8.690;2023-11-21T06:19:46;8.47;;;7.50;;
13291;SDS011;6714;53.056;8.690;2023-11-21T06:22:28;8.53;;;7.10;;
13291;SDS011;6714;53.056;8.690;2023-11-21T06:25:11;7.80;;;7.00;;
13291;SDS011;6714;53.056;8.690;2023-11-21T06:27:55;7.20;;;6.43;;
13291;SDS011;6714;53.056;8.690;2023-11-21T06:30:37;7.30;;;6.60;;
13291;SDS011;6714;53.056;8.690;2023-11-21T06:33:22;8.47;;;7.10;;
13291;SDS011;6714;53.056;8.690;2023-11-21T06:36:08;9.77;;;6.70;;
13291;SDS011;6714;53.056;8.690;2023-11-21T06:38:51;9.70;;;7.63;;
13291;SDS011;6714;53.056;8.690;2023-11-21T06:41:34;9.13;;;7.20;;
13291;SDS011;6714;53.056;8.690;2023-11-21T06:44:20;6.97;;;6.27;;
13291;SDS011;6714;53.056;8.690;2023-11-21T06:47:03;8.43;;;7.53;;
13291;SDS011;6714;53.056;8.690;2023-11-21T06:49:46;10.23;;;7.63;;
13291;SDS011;6714;53.056;8.690;2023-11-21T06:52:29;7.80;;;7.00;;
13291;SDS011;6714;53.056;8.690;2023-11-21T06:55:11;8.20;;;7.30;;
13291;SDS011;6714;53.056;8.690;2023-11-21T06:57:54;10.43;;;7.67;;
13291;SDS011;6714;53.056;8.690;2023-11-21T07:00:39;8.27;;;7.03;;
13291;SDS011;6714;53.056;8.690;2023-11-21T07:03:26;8.50;;;7.33;;
13291;SDS011;6714;53.056;8.690;2023-11-21T07:06:08;7.17;;;6.47;;
13291;SDS011;6714;53.056;8.690;2023-11-21T07:08:51;8.77;;;7.20;;
13291;SDS011;6714;53.056;8.690;2023-11-21T07:11:33;8.00;;;7.13;;
13291;SDS011;6714;53.056;8.690;2023-11-21T07:14:16;9.37;;;7.57;;
13291;SDS011;6714;53.056;8.690;2023-11-21T07:17:01;8.03;;;7.17;;
13291;SDS011;6714;53.056;8.690;2023-11-21T07:19:44;9.33;;;8.20;;
13291;SDS011;6714;53.056;8.690;2023-11-21T07:22:26;9.20;;;8.20;;
13291;SDS011;6714;53.056;8.690;2023-11-21T07:25:09;8.23;;;6.83;;
13291;SDS011;6714;53.056;8.690;2023-11-21T07:27:52;7.87;;;7.03;;
13291;SDS011;6714;53.056;8.690;2023-11-21T07:30:35;8.83;;;7.70;;
13291;SDS011;6714;53.056;8.690;2023-11-21T07:33:19;9.37;;;8.23;;
13291;SDS011;6714;53.056;8.690;2023-11-21T07:36:03;8.97;;;7.43;;
13291;SDS011;6714;53.056;8.690;2023-11-21T07:38:45;8.27;;;7.30;;
13291;SDS011;6714;53.056;8.690;2023-11-21T07:41:28;10.50;;;7.80;;
13291;SDS011;6714;53.056;8.690;2023-11-21T07:44:10;11.23;;;8.50;;
13291;SDS011;6714;53.056;8.690;2023-11-21T07:46:53;7.23;;;6.47;;
13291;SDS011;6714;53.056;8.690;2023-11-21T07:49:39;8.63;;;7.30;;
13291;SDS011;6714;53.056;8.690;2023-11-21T07:52:23;10.23;;;8.40;;
13291;SDS011;6714;53.056;8.690;2023-11-21T07:55:06;9.53;;;7.43;;
13291;SDS011;6714;53.056;8.690;2023-11-21T07:57:48;8.70;;;7.77;;
13291;SDS011;6714;53.056;8.690;2023-11-21T08:00:31;9.50;;;8.50;;
13291;SDS011;6714;53.056;8.690;2023-11-21T08:03:14;11.63;;;9.40;;
13291;SDS011;6714;53.056;8.690;2023-11-21T08:05:59;9.90;;;8.87;;
13291;SDS011;6714;53.056;8.690;2023-11-21T08:08:43;8.97;;;7.97;;
13291;SDS011;6714;53.056;8.690;2023-11-21T08:11:26;9.53;;;8.27;;
13291;SDS011;6714;53.056;8.690;2023-11-21T08:14:09;8.93;;;7.63;;
13291;SDS011;6714;53.056;8.690;2023-11-21T08:16:52;10.07;;;8.53;;
13291;SDS011;6714;53.056;8.690;2023-11-21T08:19:37;11.47;;;9.60;;
13291;SDS011;6714;53.056;8.690;2023-11-21T08:22:21;11.33;;;9.13;;
13291;SDS011;6714;53.056;8.690;2023-11-21T08:25:05;8.73;;;7.83;;
13291;SDS011;6714;53.056;8.690;2023-11-21T08:27:51;12.40;;;9.37;;
13291;SDS011;6714;53.056;8.690;2023-11-21T08:30:34;8.47;;;6.20;;
13291;SDS011;6714;53.056;8.690;2023-11-21T08:33:16;8.43;;;7.57;;
13291;SDS011;6714;53.056;8.690;2023-11-21T08:35:59;12.40;;;9.30;;
13291;SDS011;6714;53.056;8.690;2023-11-21T08:38:43;10.20;;;9.10;;
13291;SDS011;6714;53.056;8.690;2023-11-21T08:41:25;10.33;;;7.97;;
13291;SDS011;6714;53.056;8.690;2023-11-21T08:44:08;10.07;;;8.57;;
13291;SDS011;6714;53.056;8.690;2023-11-21T08:46:51;11.33;;;9.30;;
13291;SDS011;6714;53.056;8.690;2023-11-21T08:49:33;8.07;;;7.23;;
13291;SDS011;6714;53.056;8.690;2023-11-21T08:52:16;7.83;;;7.00;;
13291;SDS011;6714;53.056;8.690;2023-11-21T08:55:00;9.73;;;8.73;;
13291;SDS011;6714;53.056;8.690;2023-11-21T08:57:47;9.20;;;8.07;;
13291;SDS011;6714;53.056;8.690;2023-11-21T09:00:31;6.50;;;5.90;;
13291;SDS011;6714;53.056;8.690;2023-11-21T09:03:14;12.70;;;9.30;;
13291;SDS011;6714;53.056;8.690;2023-11-21T09:05:56;11.43;;;9.90;;
13291;SDS011;6714;53.056;8.690;2023-11-21T09:08:40;11.23;;;8.57;;
13291;SDS011;6714;53.056;8.690;2023-11-21T09:11:25;9.97;;;8.80;;
13291;SDS011;6714;53.056;8.690;2023-11-21T09:14:13;12.17;;;9.53;;
13291;SDS011;6714;53.056;8.690;2023-11-21T09:16:56;11.87;;;9.90;;
13291;SDS011;6714;53.056;8.690;2023-11-21T09:19:39;7.90;;;6.60;;
13291;SDS011;6714;53.056;8.690;2023-11-21T09:22:23;11.07;;;9.60;;
13291;SDS011;6714;53.056;8.690;2023-11-21T09:25:06;12.10;;;9.40;;
13291;SDS011;6714;53.056;8.690;2023-11-21T09:27:50;10.33;;;7.93;;
13291;SDS011;6714;53.056;8.690;2023-11-21T09:30:32;7.80;;;6.70;;
13291;SDS011;6714;53.056;8.690;2023-11-21T09:33:15;6.20;;;5.60;;
13291;SDS011;6714;53.056;8.690;2023-11-21T09:35:57;12.40;;;10.20;;
13291;SDS011;6714;53.056;8.690;2023-11-21T09:38:40;9.43;;;8.13;;
13291;SDS011;6714;53.056;8.690;2023-11-21T09:41:25;7.47;;;6.10;;
13291;SDS011;6714;53.056;8.690;2023-11-21T09:44:12;7.20;;;6.50;;
13291;SDS011;6714;53.056;8.690;2023-11-21T09:46:55;10.50;;;9.23;;
13291;SDS011;6714;53.056;8.690;2023-11-21T09:49:40;8.23;;;6.87;;
13291;SDS011;6714;53.056;8.690;2023-11-21T09:52:24;7.27;;;6.57;;
13291;SDS011;6714;53.056;8.690;2023-11-21T09:55:07;9.97;;;7.73;;
13291;SDS011;6714;53.056;8.690;2023-11-21T09:57:53;10.30;;;8.03;;
13291;SDS011;6714;53.056;8.690;2023-11-21T10:00:37;8.73;;;7.30;;
13291;SDS011;6714;53.056;8.690;2023-11-21T10:03:22;7.90;;;7.10;;
13291;SDS011;6714;53.056;8.690;2023-11-21T10:06:05;8.27;;;7.47;;
13291;SDS011;6714;53.056;8.690;2023-11-21T10:08:48;7.40;;;6.53;;
13291;SDS011;6714;53.056;8.690;2023-11-21T10:11:31;6.20;;;5.60;;
13291;SDS011;6714;53.056;8.690;2023-11-21T10:14:14;9.03;;;8.10;;
13291;SDS011;6714;53.056;8.690;2023-11-21T10:17:00;8.83;;;7.13;;
13291;SDS011;6714;53.056;8.690;2023-11-21T10:19:42;10.33;;;9.10;;
13291;SDS011;6714;53.056;8.690;2023-11-21T10:22:25;9.67;;;8.67;;
13291;SDS011;6714;53.056;8.690;2023-11-21T10:25:09;12.27;;;9.93;;
13291;SDS011;6714;53.056;8.690;2023-11-21T10:27:57;8.57;;;7.50;;
13291;SDS011;6714;53.056;8.690;2023-11-21T10:30:41;10.80;;;8.27;;
13291;SDS011;6714;53.056;8.690;2023-11-21T10:33:28;7.07;;;6.30;;
13291;SDS011;6714;53.056;8.690;2023-11-21T10:36:11;7.70;;;6.90;;
13291;SDS011;6714;53.056;8.690;2023-11-21T10:38:54;8.00;;;7.07;;
13291;SDS011;6714;53.056;8.690;2023-11-21T10:41:37;5.90;;;5.30;;
13291;SDS011;6714;53.056;8.690;2023-11-21T10:44:20;7.87;;;6.93;;
13291;SDS011;6714;53.056;8.690;2023-11-21T10:47:04;10.13;;;8.73;;
13291;SDS011;6714;53.056;8.690;2023-11-21T10:49:49;8.83;;;7.83;;
13291;SDS011;6714;53.056;8.690;2023-11-21T10:52:33;8.10;;;7.30;;
13291;SDS011;6714;53.056;8.690;2023-11-21T10:55:16;8.57;;;7.53;;
13291;SDS011;6714;53.056;8.690;2023-11-21T10:58:01;7.50;;;6.73;;
13291;SDS011;6714;53.056;8.690;2023-11-21T11:00:45;7.40;;;6.23;;
13291;SDS011;6714;53.056;8.690;2023-11-21T11:03:28;8.40;;;7.03;;
13291;SDS011;6714;53.056;8.690;2023-11-21T11:06:12;9.63;;;8.60;;
13291;SDS011;6714;53.056;8.690;2023-11-21T11:08:55;10.63;;;8.77;;
13291;SDS011;6714;53.056;8.690;2023-11-21T11:11:38;11.63;;;9.73;;
13291;SDS011;6714;53.056;8.690;2023-11-21T11:14:21;9.10;;;8.20;;
13291;SDS011;6714;53.056;8.690;2023-11-21T11:17:05;8.17;;;7.27;;
13291;SDS011;6714;53.056;8.690;2023-11-21T11:19:49;7.90;;;7.13;;
13291;SDS011;6714;53.056;8.690;2023-11-21T11:22:35;7.47;;;6.77;;
13291;SDS011;6714;53.056;8.690;2023-11-21T11:25:27;5.83;;;5.23;;
13291;SDS011;6714;53.056;8.690;2023-11-21T11:28:15;8.03;;;6.57;;
13291;SDS011;6714;53.056;8.690;2023-11-21T11:31:01;8.73;;;7.73;;
13291;SDS011;6714;53.056;8.690;2023-11-21T11:33:48;6.37;;;5.70;;
13291;SDS011;6714;53.056;8.690;2023-11-21T11:36:36;7.30;;;6.50;;
13291;SDS011;6714;53.056;8.690;2023-11-21T11:39:30;6.43;;;5.83;;
13291;SDS011;6714;53.056;8.690;2023-11-21T11:42:13;8.77;;;7.87;;
13291;SDS011;6714;53.056;8.690;2023-11-21T11:44:56;9.53;;;8.20;;
13291;SDS011;6714;53.056;8.690;2023-11-21T11:47:38;5.97;;;5.37;;
13291;SDS011;6714;53.056;8.690;2023-11-21T11:50:21;8.57;;;7.70;;
13291;SDS011;6714;53.056;8.690;2023-11-21T11:53:12;7.23;;;6.53;;
13291;SDS011;6714;53.056;8.690;2023-11-21T11:56:00;7.80;;;7.07;;
13291;SDS011;6714;53.056;8.690;2023-11-21T11:59:02;8.87;;;7.53;;
13291;SDS011;6714;53.056;8.690;2023-11-21T12:01:46;7.60;;;6.37;;
13291;SDS011;6714;53.056;8.690;2023-11-21T12:04:30;7.07;;;6.37;;
13291;SDS011;6714;53.056;8.690;2023-11-21T12:07:14;6.73;;;6.07;;
13291;SDS011;6714;53.056;8.690;2023-11-21T12:09:57;6.90;;;6.20;;
13291;SDS011;6714;53.056;8.690;2023-11-21T12:15:42;9.80;;;8.73;;
13291;SDS011;6714;53.056;8.690;2023-11-21T12:18:26;8.50;;;7.60;;
13291;SDS011;6714;53.056;8.690;2023-11-21T12:21:08;7.23;;;6.53;;
13291;SDS011;6714;53.056;8.690;2023-11-21T12:23:51;8.53;;;7.20;;
13291;SDS011;6714;53.056;8.690;2023-11-21T12:26:33;5.60;;;5.10;;
13291;SDS011;6714;53.056;8.690;2023-11-21T12:29:16;5.83;;;5.27;;
13291;SDS011;6714;53.056;8.690;2023-11-21T12:32:00;6.87;;;6.17;;
13291;SDS011;6714;53.056;8.690;2023-11-21T12:34:42;7.27;;;6.47;;
13291;SDS011;6714;53.056;8.690;2023-11-21T12:37:25;7.10;;;6.40;;
13291;SDS011;6714;53.056;8.690;2023-11-21T12:40:08;6.20;;;5.57;;
13291;SDS011;6714;53.056;8.690;2023-11-21T12:42:52;7.73;;;6.47;;
13291;SDS011;6714;53.056;8.690;2023-11-21T12:45:35;7.17;;;6.47;;
13291;SDS011;6714;53.056;8.690;2023-11-21T12:48:19;6.80;;;5.80;;
13291;SDS011;6714;53.056;8.690;2023-11-21T12:51:04;5.33;;;4.80;;
13291;SDS011;6714;53.056;8.690;2023-11-21T12:53:47;5.60;;;5.10;;
13291;SDS011;6714;53.056;8.690;2023-11-21T12:56:30;5.93;;;5.37;;
13291;SDS011;6714;53.056;8.690;2023-11-21T12:59:13;5.63;;;4.97;;
13291;SDS011;6714;53.056;8.690;2023-11-21T13:01:58;6.10;;;5.17;;
13291;SDS011;6714;53.056;8.690;2023-11-21T13:04:53;5.60;;;5.10;;
13291;SDS011;6714;53.056;8.690;2023-11-21T13:07:40;5.00;;;4.53;;
13291;SDS011;6714;53.056;8.690;2023-11-21T13:10:27;5.20;;;4.70;;
13291;SDS011;6714;53.056;8.690;2023-11-21T13:13:11;5.17;;;4.67;;
13291;SDS011;6714;53.056;8.690;2023-11-21T13:15:59;4.80;;;4.20;;
13291;SDS011;6714;53.056;8.690;2023-11-21T13:18:44;4.90;;;4.20;;
13291;SDS011;6714;53.056;8.690;2023-11-21T13:21:28;4.43;;;4.03;;
13291;SDS011;6714;53.056;8.690;2023-11-21T13:24:11;4.17;;;3.80;;
13291;SDS011;6714;53.056;8.690;2023-11-21T13:26:54;5.80;;;4.33;;
13291;SDS011;6714;53.056;8.690;2023-11-21T13:29:38;4.83;;;4.33;;
13291;SDS011;6714;53.056;8.690;2023-11-21T13:32:20;5.07;;;4.57;;
13291;SDS011;6714;53.056;8.690;2023-11-21T13:35:06;3.73;;;3.43;;
13291;SDS011;6714;53.056;8.690;2023-11-21T13:37:53;5.00;;;4.00;;
13291;SDS011;6714;53.056;8.690;2023-11-21T13:40:38;4.13;;;3.73;;
13291;SDS011;6714;53.056;8.690;2023-11-21T13:43:24;3.93;;;3.53;;
13291;SDS011;6714;53.056;8.690;2023-11-21T13:46:08;3.63;;;3.27;;
13291;SDS011;6714;53.056;8.690;2023-11-21T13:48:55;2.73;;;2.53;;
13291;SDS011;6714;53.056;8.690;2023-11-21T13:51:37;3.43;;;3.13;;
13291;SDS011;6714;53.056;8.690;2023-11-21T13:54:24;3.00;;;2.80;;
13291;SDS011;6714;53.056;8.690;2023-11-21T13:57:08;2.87;;;2.67;;
13291;SDS011;6714;53.056;8.690;2023-11-21T13:59:50;2.97;;;2.77;;
13291;SDS011;6714;53.056;8.690;2023-11-21T14:02:34;3.90;;;3.40;;
13291;SDS011;6714;53.056;8.690;2023-11-21T14:05:22;3.40;;;3.20;;
13291;SDS011;6714;53.056;8.690;2023-11-21T14:08:09;3.70;;;3.30;;
13291;SDS011;6714;53.056;8.690;2023-11-21T14:10:57;3.50;;;3.30;;
13291;SDS011;6714;53.056;8.690;2023-11-21T14:13:40;3.53;;;3.27;;
13291;SDS011;6714;53.056;8.690;2023-11-21T14:16:26;3.67;;;3.17;;
13291;SDS011;6714;53.056;8.690;2023-11-21T14:19:08;3.30;;;3.10;;
13291;SDS011;6714;53.056;8.690;2023-11-21T14:21:55;3.30;;;3.00;;
13291;SDS011;6714;53.056;8.690;2023-11-21T14:24:39;4.50;;;2.90;;
13291;SDS011;6714;53.056;8.690;2023-11-21T14:27:27;3.07;;;2.87;;
13291;SDS011;6714;53.056;8.690;2023-11-21T14:30:09;3.00;;;2.80;;
13291;SDS011;6714;53.056;8.690;2023-11-21T14:32:53;3.33;;;3.07;;
13291;SDS011;6714;53.056;8.690;2023-11-21T14:35:36;3.27;;;3.00;;
13291;SDS011;6714;53.056;8.690;2023-11-21T14:38:18;4.23;;;3.43;;
13291;SDS011;6714;53.056;8.690;2023-11-21T14:41:01;3.20;;;2.93;;
13291;SDS011;6714;53.056;8.690;2023-11-21T14:43:45;3.20;;;3.00;;
13291;SDS011;6714;53.056;8.690;2023-11-21T14:46:31;3.20;;;2.90;;
13291;SDS011;6714;53.056;8.690;2023-11-21T14:49:16;2.93;;;2.73;;
13291;SDS011;6714;53.056;8.690;2023-11-21T14:52:00;2.73;;;2.53;;
13291;SDS011;6714;53.056;8.690;2023-11-21T14:54:43;2.90;;;2.70;;
13291;SDS011;6714;53.056;8.690;2023-11-21T14:57:26;3.20;;;2.53;;
13291;SDS011;6714;53.056;8.690;2023-11-21T15:00:12;3.50;;;2.90;;
13291;SDS011;6714;53.056;8.690;2023-11-21T15:03:12;3.40;;;3.10;;
13291;SDS011;6714;53.056;8.690;2023-11-21T15:06:17;2.63;;;2.43;;
13291;SDS011;6714;53.056;8.690;2023-11-21T15:08:59;2.90;;;2.70;;
13291;SDS011;6714;53.056;8.690;2023-11-21T15:11:55;2.70;;;2.50;;
13291;SDS011;6714;53.056;8.690;2023-11-21T15:14:44;2.33;;;2.23;;
13291;SDS011;6714;53.056;8.690;2023-11-21T15:17:29;3.03;;;2.50;;
13291;SDS011;6714;53.056;8.690;2023-11-21T15:20:12;2.70;;;2.50;;
13291;SDS011;6714;53.056;8.690;2023-11-21T15:22:59;2.40;;;2.20;;
13291;SDS011;6714;53.056;8.690;2023-11-21T15:25:42;1.97;;;1.87;;
13291;SDS011;6714;53.056;8.690;2023-11-21T15:28:25;3.33;;;2.80;;
13291;SDS011;6714;53.056;8.690;2023-11-21T15:31:08;2.97;;;2.77;;
13291;SDS011;6714;53.056;8.690;2023-11-21T15:33:52;2.77;;;2.57;;
13291;SDS011;6714;53.056;8.690;2023-11-21T15:36:39;2.47;;;2.37;;
13291;SDS011;6714;53.056;8.690;2023-11-21T15:39:22;2.70;;;2.50;;
13291;SDS011;6714;53.056;8.690;2023-11-21T15:42:08;2.97;;;2.77;;
13291;SDS011;6714;53.056;8.690;2023-11-21T15:44:50;3.20;;;2.90;;
13291;SDS011;6714;53.056;8.690;2023-11-21T15:47:33;3.30;;;3.00;;
13291;SDS011;6714;53.056;8.690;2023-11-21T15:50:17;3.20;;;3.00;;
13291;SDS011;6714;53.056;8.690;2023-11-21T15:52:59;3.27;;;2.97;;
13291;SDS011;6714;53.056;8.690;2023-11-21T15:55:43;2.90;;;2.70;;
13291;SDS011;6714;53.056;8.690;2023-11-21T15:58:25;3.30;;;3.00;;
13291;SDS011;6714;53.056;8.690;2023-11-21T16:01:10;3.17;;;2.97;;
13291;SDS011;6714;53.056;8.690;2023-11-21T16:03:53;3.60;;;3.10;;
13291;SDS011;6714;53.056;8.690;2023-11-21T16:06:37;2.80;;;2.60;;
13291;SDS011;6714;53.056;8.690;2023-11-21T16:09:21;2.60;;;2.40;;
13291;SDS011;6714;53.056;8.690;2023-11-21T16:12:10;2.97;;;2.77;;
13291;SDS011;6714;53.056;8.690;2023-11-21T16:14:53;2.40;;;2.20;;
13291;SDS011;6714;53.056;8.690;2023-11-21T16:17:38;3.87;;;3.20;;
13291;SDS011;6714;53.056;8.690;2023-11-21T16:20:22;2.93;;;2.73;;
13291;SDS011;6714;53.056;8.690;2023-11-21T16:23:08;3.17;;;2.87;;
13291;SDS011;6714;53.056;8.690;2023-11-21T16:25:50;2.70;;;2.43;;
13291;SDS011;6714;53.056;8.690;2023-11-21T16:28:34;2.53;;;2.33;;
13291;SDS011;6714;53.056;8.690;2023-11-21T16:31:21;3.00;;;2.70;;
13291;SDS011;6714;53.056;8.690;2023-11-21T16:34:11;3.27;;;3.07;;
13291;SDS011;6714;53.056;8.690;2023-11-21T16:36:54;3.80;;;3.50;;